createdAt,value
2022-11-09T00:01:22.541Z,22.65
2022-11-09T00:04:03.982Z,22.45
2022-11-09T00:06:32.623Z,22.67
2022-11-09T00:09:07.155Z,22.75
2022-11-09T00:11:37.754Z,22.76
2022-11-09T00:14:07.044Z,22.74
2022-11-09T00:16:35.151Z,22.54
2022-11-09T00:19:03.079Z,22.70
2022-11-09T00:21:30.662Z,22.44
2022-11-09T00:23:58.463Z,22.34
2022-11-09T00:26:26.863Z,22.75
2022-11-09T00:28:54.559Z,22.76
2022-11-09T00:31:26.956Z,22.64
2022-11-09T00:33:57.149Z,22.54
2022-11-09T00:36:26.416Z,22.73
2022-11-09T00:38:56.846Z,22.72
2022-11-09T00:41:26.592Z,22.57
2022-11-09T00:43:56.306Z,22.59
2022-11-09T00:46:24.876Z,22.51
2022-11-09T00:48:56.009Z,22.63
2022-11-09T00:51:23.969Z,22.76
2022-11-09T00:53:54.751Z,22.60
2022-11-09T00:56:25.425Z,22.68
2022-11-09T00:58:56.064Z,22.73
2022-11-09T01:01:25.418Z,22.74
2022-11-09T01:03:53.164Z,22.68
2022-11-09T01:06:24.517Z,22.74
2022-11-09T01:08:53.715Z,22.34
2022-11-09T01:11:22.862Z,22.49
2022-11-09T01:13:55.553Z,22.77
2022-11-09T01:16:24.613Z,22.76
2022-11-09T01:18:57.041Z,22.77
2022-11-09T01:21:28.166Z,22.53
2022-11-09T01:23:58.568Z,22.75
2022-11-09T01:26:28.969Z,22.76
2022-11-09T01:28:56.790Z,22.77
2022-11-09T01:31:26.086Z,22.38
2022-11-09T01:33:54.125Z,22.70
2022-11-09T01:36:23.537Z,22.67
2022-11-09T01:38:51.689Z,22.59
2022-11-09T01:41:28.706Z,22.79
2022-11-09T01:44:23.172Z,22.81
2022-11-09T01:46:57.278Z,22.52
2022-11-09T01:49:38.379Z,22.79
2022-11-09T01:52:12.534Z,22.77
2022-11-09T01:54:49.364Z,22.61
2022-11-09T01:57:26.537Z,22.59
2022-11-09T02:00:02.078Z,22.65
2022-11-09T02:02:46.287Z,22.73
2022-11-09T02:05:21.440Z,22.59
2022-11-09T02:07:52.545Z,22.74
2022-11-09T02:10:39.225Z,22.76
2022-11-09T02:13:10.113Z,22.50
2022-11-09T02:15:45.457Z,22.77
2022-11-09T02:18:14.788Z,21.69
2022-11-09T02:20:49.044Z,22.73
2022-11-09T02:23:17.150Z,22.69
2022-11-09T02:25:50.398Z,22.40
2022-11-09T02:28:18.808Z,22.32
2022-11-09T02:30:52.716Z,22.69
2022-11-09T02:33:20.829Z,22.57
2022-11-09T02:35:48.940Z,22.68
2022-11-09T02:38:16.602Z,22.68
2022-11-09T02:40:48.333Z,22.63
2022-11-09T02:43:18.466Z,22.68
2022-11-09T02:45:46.739Z,22.29
2022-11-09T02:48:15.661Z,22.69
2022-11-09T02:50:43.345Z,22.22
2022-11-09T02:53:11.198Z,22.38
2022-11-09T02:55:43.033Z,22.61
2022-11-09T02:58:10.910Z,22.67
2022-11-09T03:00:40.605Z,22.68
2022-11-09T03:03:08.559Z,22.54
2022-11-09T03:05:36.290Z,22.37
2022-11-09T03:08:04.060Z,22.61
2022-11-09T03:10:35.541Z,22.48
2022-11-09T03:13:03.553Z,22.66
2022-11-09T03:15:31.308Z,22.25
2022-11-09T03:17:58.941Z,22.48
2022-11-09T03:20:26.741Z,22.67
2022-11-09T03:22:58.276Z,22.52
2022-11-09T03:25:27.328Z,22.23
2022-11-09T03:28:00.521Z,22.69
2022-11-09T03:30:28.521Z,22.53
2022-11-09T03:33:01.849Z,22.65
2022-11-09T03:35:29.794Z,22.48
2022-11-09T03:37:57.799Z,22.57
2022-11-09T03:40:26.958Z,22.50
2022-11-09T03:42:54.628Z,22.44
2022-11-09T03:45:22.373Z,22.73
2022-11-09T03:47:50.326Z,22.60
2022-11-09T03:50:18.169Z,22.72
2022-11-09T03:52:46.844Z,22.64
2022-11-09T03:55:14.987Z,22.28
2022-11-09T03:57:44.790Z,22.66
2022-11-09T04:00:14.733Z,22.44
2022-11-09T04:02:42.336Z,22.68
2022-11-09T04:05:10.793Z,22.43
2022-11-09T04:07:38.886Z,22.66
2022-11-09T04:10:07.727Z,22.63
2022-11-09T04:12:35.355Z,22.25
2022-11-09T04:15:03.685Z,22.60
2022-11-09T04:17:33.371Z,22.21
2022-11-09T04:20:02.072Z,22.37
2022-11-09T04:22:29.890Z,22.28
2022-11-09T04:24:57.497Z,22.38
2022-11-09T04:27:25.412Z,22.25
2022-11-09T04:29:53.087Z,21.86
2022-11-09T04:32:21.024Z,22.59
2022-11-09T04:34:48.806Z,22.55
2022-11-09T04:37:16.582Z,22.37
2022-11-09T04:39:44.360Z,22.43
2022-11-09T04:42:12.092Z,22.36
2022-11-09T04:44:40.213Z,22.13
2022-11-09T04:47:08.170Z,22.20
2022-11-09T04:49:36.082Z,22.39
2022-11-09T04:52:05.608Z,22.55
2022-11-09T04:54:34.025Z,22.54
2022-11-09T04:57:01.791Z,22.38
2022-11-09T04:59:29.439Z,22.16
2022-11-09T05:01:57.060Z,22.24
2022-11-09T05:04:24.706Z,21.63
2022-11-09T05:06:52.401Z,22.52
2022-11-09T05:09:20.242Z,22.22
2022-11-09T05:11:48.276Z,22.22
2022-11-09T05:14:15.917Z,22.33
2022-11-09T05:16:43.609Z,22.33
2022-11-09T05:19:13.680Z,22.54
2022-11-09T05:21:41.632Z,22.47
2022-11-09T05:24:09.401Z,22.14
2022-11-09T05:26:40.118Z,22.50
2022-11-09T05:29:10.474Z,22.44
2022-11-09T05:31:40.410Z,22.49
2022-11-09T05:34:12.509Z,22.21
2022-11-09T05:36:40.306Z,22.06
2022-11-09T05:39:08.511Z,22.49
2022-11-09T05:41:36.341Z,21.96
2022-11-09T05:44:05.864Z,22.22
2022-11-09T05:46:34.379Z,22.26
2022-11-09T05:49:02.126Z,22.42
2022-11-09T05:51:29.761Z,22.48
2022-11-09T05:53:58.541Z,22.47
2022-11-09T05:56:26.295Z,22.50
2022-11-09T05:58:54.127Z,22.47
2022-11-09T06:01:21.736Z,22.36
2022-11-09T06:03:49.550Z,22.26
2022-11-09T06:06:18.033Z,22.50
2022-11-09T06:08:45.830Z,22.51
2022-11-09T06:11:18.555Z,22.51
2022-11-09T06:13:50.802Z,22.51
2022-11-09T06:16:18.700Z,22.09
2022-11-09T06:18:46.409Z,22.26
2022-11-09T06:21:14.082Z,22.56
2022-11-09T06:23:41.857Z,22.38
2022-11-09T06:26:11.421Z,22.45
2022-11-09T06:28:40.703Z,22.56
2022-11-09T06:31:15.744Z,22.56
2022-11-09T06:33:46.490Z,22.59
2022-11-09T06:36:16.029Z,22.58
2022-11-09T06:38:43.735Z,22.33
2022-11-09T06:41:11.405Z,22.44
2022-11-09T06:43:39.165Z,22.56
2022-11-09T06:46:07.315Z,22.28
2022-11-09T06:48:34.947Z,22.42
2022-11-09T06:51:04.242Z,22.68
2022-11-09T06:53:35.464Z,22.69
2022-11-09T06:56:06.965Z,22.70
2022-11-09T06:58:35.349Z,22.69
2022-11-09T07:01:12.127Z,22.71
2022-11-09T07:03:40.393Z,22.68
2022-11-09T07:06:09.794Z,22.67
2022-11-09T07:08:39.450Z,22.52
2022-11-09T07:11:11.275Z,22.37
2022-11-09T07:13:40.554Z,22.46
2022-11-09T07:16:12.992Z,22.67
2022-11-09T07:18:42.169Z,22.48
2022-11-09T07:21:14.455Z,22.24
2022-11-09T07:23:42.914Z,22.62
2022-11-09T07:26:10.826Z,22.63
2022-11-09T07:28:38.634Z,22.50
2022-11-09T07:31:06.549Z,22.59
2022-11-09T07:33:34.613Z,22.63
2022-11-09T07:36:04.636Z,22.36
2022-11-09T07:38:32.271Z,22.60
2022-11-09T07:41:01.646Z,22.61
2022-11-09T07:43:30.386Z,22.27
2022-11-09T07:46:03.926Z,22.43
2022-11-09T07:48:31.757Z,22.35
2022-11-09T07:51:01.745Z,22.48
2022-11-09T07:53:29.799Z,22.35
2022-11-09T07:55:59.726Z,22.55
2022-11-09T07:58:28.160Z,22.56
2022-11-09T08:00:56.345Z,22.53
2022-11-09T08:03:25.657Z,22.34
2022-11-09T08:05:53.443Z,22.09
2022-11-09T08:08:21.195Z,22.42
2022-11-09T08:10:52.545Z,22.35
2022-11-09T08:13:22.095Z,22.36
2022-11-09T08:15:50.099Z,22.61
2022-11-09T08:18:22.860Z,22.61
2022-11-09T08:20:51.617Z,22.48
2022-11-09T08:23:21.890Z,22.66
2022-11-09T08:25:50.683Z,22.73
2022-11-09T08:28:19.358Z,22.46
2022-11-09T08:30:56.921Z,22.66
2022-11-09T08:33:25.030Z,22.74
2022-11-09T08:35:53.447Z,22.64
2022-11-09T08:38:22.592Z,22.60
2022-11-09T08:40:50.898Z,22.60
2022-11-09T08:43:18.921Z,22.78
2022-11-09T08:45:47.619Z,22.76
2022-11-09T08:48:17.263Z,22.85
2022-11-09T08:50:45.162Z,22.80
2022-11-09T08:53:13.165Z,22.92
2022-11-09T08:55:47.016Z,23.07
2022-11-09T08:59:59.491Z,23.16
2022-11-09T09:02:27.310Z,23.07
2022-11-09T09:04:56.263Z,22.98
2022-11-09T09:07:24.289Z,22.35
2022-11-09T09:09:52.545Z,23.33
2022-11-09T09:12:20.145Z,23.21
2022-11-09T09:14:48.243Z,23.38
2022-11-09T09:17:16.091Z,23.37
2022-11-09T09:19:48.761Z,23.21
2022-11-09T09:22:18.399Z,23.42
2022-11-09T09:24:46.200Z,22.85
2022-11-09T09:27:14.688Z,23.41
2022-11-09T09:29:42.331Z,23.42
2022-11-09T09:32:10.015Z,23.35
2022-11-09T09:34:37.558Z,23.16
2022-11-09T09:37:05.201Z,23.28
2022-11-09T09:39:32.902Z,23.21
2022-11-09T09:42:05.027Z,23.22
2022-11-09T09:44:37.057Z,23.01
2022-11-09T09:47:13.479Z,23.31
2022-11-09T09:49:58.338Z,23.22
2022-11-09T09:52:50.606Z,23.22
2022-11-09T09:55:39.285Z,23.25
2022-11-09T09:58:29.098Z,23.24
2022-11-09T10:01:06.432Z,22.68
2022-11-09T10:03:34.416Z,22.84
2022-11-09T10:06:27.766Z,23.00
2022-11-09T10:09:14.222Z,23.21
2022-11-09T10:12:00.939Z,23.21
2022-11-09T10:14:51.521Z,23.20
2022-11-09T10:17:33.866Z,22.98
2022-11-09T10:20:19.793Z,22.91
2022-11-09T10:22:50.362Z,23.24
2022-11-09T10:25:43.298Z,22.94
2022-11-09T10:28:17.106Z,23.07
2022-11-09T10:30:45.517Z,23.20
2022-11-09T10:33:21.523Z,23.05
2022-11-09T10:35:57.484Z,23.20
2022-11-09T10:38:33.710Z,23.21
2022-11-09T10:41:28.845Z,23.20
2022-11-09T10:44:19.898Z,23.15
2022-11-09T10:47:16.365Z,23.19
2022-11-09T10:50:22.239Z,22.97
2022-11-09T10:53:22.201Z,23.22
2022-11-09T10:56:20.289Z,22.73
2022-11-09T10:59:48.444Z,23.23
2022-11-09T11:02:44.046Z,23.20
2022-11-09T11:05:31.375Z,23.20
2022-11-09T11:08:29.487Z,22.82
2022-11-09T11:11:35.153Z,23.19
2022-11-09T11:14:35.714Z,23.20
2022-11-09T11:17:24.771Z,23.17
2022-11-09T11:20:33.303Z,23.12
2022-11-09T11:23:25.395Z,23.11
2022-11-09T11:26:25.991Z,23.20
2022-11-09T11:29:15.528Z,23.21
2022-11-09T11:32:01.942Z,23.14
2022-11-09T11:35:04.726Z,23.05
2022-11-09T11:38:15.176Z,23.20
2022-11-09T11:41:19.457Z,23.19
2022-11-09T11:44:41.537Z,23.20
2022-11-09T11:47:37.535Z,23.19
2022-11-09T11:50:36.407Z,23.18
2022-11-09T11:54:10.839Z,23.18
2022-11-09T11:57:20.154Z,23.17
2022-11-09T12:00:19.178Z,23.12
2022-11-09T12:03:44.130Z,23.15
2022-11-09T12:06:39.640Z,23.14
2022-11-09T12:09:40.243Z,23.11
2022-11-09T12:12:47.598Z,23.15
2022-11-09T12:16:03.642Z,23.14
2022-11-09T12:18:50.246Z,23.15
2022-11-09T12:21:45.601Z,23.17
2022-11-09T12:24:50.014Z,23.17
2022-11-09T12:27:45.658Z,23.17
2022-11-09T12:30:53.458Z,23.11
2022-11-09T12:33:43.880Z,22.87
2022-11-09T12:36:52.931Z,23.13
2022-11-09T12:39:45.856Z,23.10
2022-11-09T12:42:43.448Z,23.13
2022-11-09T12:45:34.555Z,23.16
2022-11-09T12:48:30.734Z,23.15
2022-11-09T12:51:18.263Z,23.15
2022-11-09T12:54:12.737Z,22.88
2022-11-09T12:57:04.809Z,22.82
2022-11-09T12:59:57.108Z,23.06
2022-11-09T13:02:55.595Z,22.80
2022-11-09T13:05:43.314Z,23.06
2022-11-09T13:08:30.574Z,23.07
2022-11-09T13:11:24.042Z,22.92
2022-11-09T13:14:22.259Z,23.07
2022-11-09T13:17:28.724Z,23.10
2022-11-09T13:20:53.389Z,23.09
2022-11-09T13:26:46.744Z,23.09
2022-11-09T13:29:41.831Z,23.02
2022-11-09T13:32:33.712Z,22.93
2022-11-09T13:35:42.221Z,23.04
2022-11-09T13:38:32.497Z,22.82
2022-11-09T13:41:32.073Z,23.14
2022-11-09T13:44:38.832Z,23.05
2022-11-09T13:47:35.305Z,23.03
2022-11-09T13:50:27.332Z,23.14
2022-11-09T13:53:53.097Z,23.18
2022-11-09T13:56:41.281Z,23.22
2022-11-09T13:59:32.741Z,23.22
2022-11-09T14:02:24.786Z,23.20
2022-11-09T14:05:30.228Z,23.06
2022-11-09T14:08:40.314Z,22.57
2022-11-09T14:11:36.645Z,23.24
2022-11-09T14:15:00.234Z,23.25
2022-11-09T14:18:19.817Z,23.13
2022-11-09T14:21:21.358Z,23.31
2022-11-09T14:24:22.474Z,23.30
2022-11-09T14:27:10.010Z,23.35
2022-11-09T14:30:02.618Z,23.00
2022-11-09T14:32:51.494Z,23.25
2022-11-09T14:35:40.625Z,23.35
2022-11-09T14:38:47.912Z,23.42
2022-11-09T14:41:35.238Z,23.23
2022-11-09T14:44:28.902Z,23.28
2022-11-09T14:47:18.931Z,23.42
2022-11-09T14:50:12.977Z,23.22
2022-11-09T14:53:01.432Z,23.17
2022-11-09T14:55:47.839Z,23.29
2022-11-09T14:58:39.750Z,23.14
2022-11-09T15:01:27.445Z,23.27
2022-11-09T15:04:21.986Z,23.32
2022-11-09T15:07:19.238Z,23.31
2022-11-09T15:10:20.512Z,23.19
2022-11-09T15:13:07.040Z,23.07
2022-11-09T15:15:55.120Z,23.25
2022-11-09T15:18:46.847Z,23.20
2022-11-09T15:21:34.659Z,23.24
2022-11-09T15:24:23.188Z,23.08
2022-11-09T15:27:36.047Z,23.26
2022-11-09T15:30:36.166Z,23.26
2022-11-09T15:33:39.895Z,23.27
2022-11-09T15:36:31.584Z,23.24
2022-11-09T15:39:22.898Z,23.25
2022-11-09T15:42:14.101Z,23.01
2022-11-09T15:45:00.389Z,23.24
2022-11-09T15:47:56.062Z,23.25
2022-11-09T15:50:42.465Z,23.02
2022-11-09T15:53:28.462Z,23.01
2022-11-09T15:56:23.587Z,23.11
2022-11-09T15:59:18.436Z,23.02
2022-11-09T16:02:05.017Z,23.02
2022-11-09T16:04:51.212Z,23.21
2022-11-09T16:07:37.250Z,23.11
2022-11-09T16:10:23.635Z,23.19
2022-11-09T16:13:10.868Z,23.22
2022-11-09T16:16:05.725Z,22.83
2022-11-09T16:18:52.046Z,23.11
2022-11-09T16:21:38.211Z,23.16
2022-11-09T16:24:25.060Z,22.99
2022-11-09T16:27:17.219Z,23.03
2022-11-09T16:30:17.789Z,22.86
2022-11-09T16:33:04.453Z,22.91
2022-11-09T16:35:50.572Z,22.94
2022-11-09T16:38:42.243Z,22.82
2022-11-09T16:41:30.837Z,23.10
2022-11-09T16:44:20.575Z,23.18
2022-11-09T16:47:12.686Z,23.08
2022-11-09T16:49:58.993Z,23.19
2022-11-09T16:52:46.042Z,22.60
2022-11-09T16:55:32.447Z,22.98
2022-11-09T16:58:19.220Z,23.04
2022-11-09T17:01:12.004Z,23.18
2022-11-09T17:03:59.348Z,23.13
2022-11-09T17:06:45.484Z,23.19
2022-11-09T17:09:35.484Z,23.00
2022-11-09T17:12:21.686Z,22.97
2022-11-09T17:15:08.311Z,23.12
2022-11-09T17:17:55.254Z,23.22
2022-11-09T17:20:46.846Z,22.87
2022-11-09T17:23:34.043Z,22.90
2022-11-09T17:26:22.029Z,23.19
2022-11-09T17:29:07.999Z,22.90
2022-11-09T17:31:56.674Z,23.11
2022-11-09T17:34:43.127Z,23.16
2022-11-09T17:37:29.556Z,22.89
2022-11-09T17:40:17.375Z,23.10
2022-11-09T17:43:05.073Z,23.20
2022-11-09T17:45:51.418Z,23.07
2022-11-09T17:48:39.097Z,23.20
2022-11-09T17:51:25.522Z,22.98
2022-11-09T17:54:12.557Z,23.04
2022-11-09T17:57:01.103Z,23.27
2022-11-09T17:59:47.303Z,23.08
2022-11-09T18:02:35.507Z,23.27
2022-11-09T18:05:21.897Z,23.29
2022-11-09T18:08:10.257Z,23.20
2022-11-09T18:11:01.652Z,23.33
2022-11-09T18:13:49.160Z,23.10
2022-11-09T18:16:35.253Z,23.38
2022-11-09T18:19:21.941Z,23.25
2022-11-09T18:22:12.488Z,22.87
2022-11-09T18:24:59.348Z,23.44
2022-11-09T18:27:45.711Z,22.93
2022-11-09T18:30:33.005Z,23.44
2022-11-09T18:33:19.195Z,23.44
2022-11-09T18:36:09.399Z,23.43
2022-11-09T18:38:56.084Z,23.27
2022-11-09T18:41:42.279Z,23.42
2022-11-09T18:44:28.220Z,23.29
2022-11-09T18:47:15.239Z,23.32
2022-11-09T18:50:01.768Z,23.23
2022-11-09T18:52:47.812Z,23.33
2022-11-09T18:55:34.708Z,23.48
2022-11-09T18:58:21.402Z,23.40
2022-11-09T19:01:08.909Z,23.26
2022-11-09T19:03:59.261Z,23.40
2022-11-09T19:06:46.149Z,23.50
2022-11-09T19:09:35.929Z,23.39
2022-11-09T19:12:22.468Z,23.03
2022-11-09T19:15:09.368Z,23.46
2022-11-09T19:17:55.493Z,23.33
2022-11-09T19:20:41.794Z,23.20
2022-11-09T19:23:32.999Z,23.39
2022-11-09T19:26:23.539Z,23.35
2022-11-09T19:29:13.620Z,23.04
2022-11-09T19:31:59.775Z,23.22
2022-11-09T19:34:46.817Z,23.18
2022-11-09T19:37:33.440Z,23.35
2022-11-09T19:40:20.598Z,23.35
2022-11-09T19:43:07.114Z,23.28
2022-11-09T19:45:53.191Z,23.48
2022-11-09T19:48:47.088Z,23.52
2022-11-09T19:51:34.949Z,23.51
2022-11-09T19:54:21.231Z,23.37
2022-11-09T19:57:07.320Z,23.44
2022-11-09T19:59:53.697Z,23.49
2022-11-09T20:02:40.080Z,23.33
2022-11-09T20:05:26.203Z,23.32
2022-11-09T20:08:12.840Z,23.39
2022-11-09T20:11:07.289Z,23.52
2022-11-09T20:13:54.864Z,23.60
2022-11-09T20:16:42.651Z,23.41
2022-11-09T20:19:28.823Z,23.51
2022-11-09T20:22:15.347Z,23.31
2022-11-09T20:25:01.523Z,23.26
2022-11-09T20:27:47.786Z,23.45
2022-11-09T20:30:33.962Z,23.27
2022-11-09T20:33:20.834Z,23.54
2022-11-09T20:36:08.103Z,23.54
2022-11-09T20:38:55.012Z,23.57
2022-11-09T20:41:42.791Z,23.25
2022-11-09T20:44:28.851Z,23.51
2022-11-09T20:47:25.761Z,23.58
2022-11-09T20:50:23.823Z,23.29
2022-11-09T20:53:10.232Z,23.63
2022-11-09T20:55:56.306Z,23.63
2022-11-09T20:58:42.898Z,23.59
2022-11-09T21:01:29.322Z,23.52
2022-11-09T21:04:16.496Z,23.63
2022-11-09T21:07:02.893Z,23.39
2022-11-09T21:09:49.328Z,23.44
2022-11-09T21:12:35.700Z,23.43
2022-11-09T21:15:21.860Z,23.34
2022-11-09T21:18:08.627Z,23.52
2022-11-09T21:20:54.634Z,23.07
2022-11-09T21:24:00.720Z,23.47
2022-11-09T21:27:08.537Z,23.32
2022-11-09T21:29:58.903Z,23.38
2022-11-09T21:32:45.238Z,23.42
2022-11-09T21:35:31.373Z,23.38
2022-11-09T21:38:17.862Z,23.38
2022-11-09T21:41:30.889Z,23.35
2022-11-09T21:44:17.369Z,23.25
2022-11-09T21:47:04.380Z,23.12
2022-11-09T21:49:50.500Z,23.30
2022-11-09T21:52:36.627Z,23.25
2022-11-09T21:55:23.209Z,23.10
2022-11-09T21:58:09.170Z,22.79
2022-11-09T22:01:03.786Z,22.97
2022-11-09T22:03:51.347Z,23.06
2022-11-09T22:06:39.786Z,23.03
2022-11-09T22:09:29.533Z,23.07
2022-11-09T22:12:37.596Z,22.57
2022-11-09T22:15:42.310Z,23.02
2022-11-09T22:18:50.135Z,22.93
2022-11-09T22:21:36.278Z,22.84
2022-11-09T22:24:22.607Z,22.97
2022-11-09T22:27:09.300Z,22.78
2022-11-09T22:29:55.658Z,22.64
2022-11-09T22:32:43.959Z,22.70
2022-11-09T22:35:30.561Z,22.92
2022-11-09T22:38:16.534Z,22.69
2022-11-09T22:41:04.774Z,22.92
2022-11-09T22:43:52.642Z,22.91
2022-11-09T22:46:39.072Z,22.92
2022-11-09T22:49:25.118Z,22.65
2022-11-09T22:52:18.368Z,22.73
2022-11-09T22:55:04.994Z,22.81
2022-11-09T22:57:55.157Z,22.77
2022-11-09T23:00:41.819Z,22.82
2022-11-09T23:03:27.885Z,22.58
2022-11-09T23:06:19.591Z,22.44
2022-11-09T23:09:06.558Z,22.52
2022-11-09T23:11:53.088Z,22.81
2022-11-09T23:14:58.016Z,22.90
2022-11-09T23:18:02.822Z,22.78
2022-11-09T23:20:49.237Z,22.83
2022-11-09T23:23:35.836Z,22.77
2022-11-09T23:26:23.918Z,22.82
2022-11-09T23:29:10.189Z,22.89
2022-11-09T23:31:57.308Z,22.81
2022-11-09T23:34:43.393Z,22.81
2022-11-09T23:37:29.984Z,22.82
2022-11-09T23:40:16.260Z,22.66
2022-11-09T23:43:05.115Z,22.64
2022-11-09T23:45:51.490Z,22.55
2022-11-09T23:48:39.700Z,22.78
2022-11-09T23:51:25.738Z,22.58
2022-11-09T23:54:12.505Z,22.64
2022-11-09T23:56:58.926Z,22.61
2022-11-09T23:59:44.965Z,22.72
